sensor_id;sensor_type;location;lat;lon;timestamp;P1;durP1;ratioP1;P2;durP2;ratioP2
16272;SDS011;8244;50.044;9.006;2023-07-22T00:01:52;7.10;;;4.43;;
16272;SDS011;8244;50.044;9.006;2023-07-22T00:06:54;6.75;;;3.70;;
16272;SDS011;8244;50.044;9.006;2023-07-22T00:11:57;7.88;;;4.65;;
16272;SDS011;8244;50.044;9.006;2023-07-22T00:16:59;6.40;;;4.38;;
16272;SDS011;8244;50.044;9.006;2023-07-22T00:22:00;8.55;;;4.22;;
16272;SDS011;8244;50.044;9.006;2023-07-22T00:27:04;5.82;;;4.30;;
16272;SDS011;8244;50.044;9.006;2023-07-22T00:32:08;7.53;;;4.25;;
16272;SDS011;8244;50.044;9.006;2023-07-22T00:37:10;8.25;;;3.83;;
16272;SDS011;8244;50.044;9.006;2023-07-22T00:42:13;6.55;;;3.80;;
16272;SDS011;8244;50.044;9.006;2023-07-22T00:47:15;6.25;;;3.88;;
16272;SDS011;8244;50.044;9.006;2023-07-22T00:52:17;5.35;;;3.90;;
16272;SDS011;8244;50.044;9.006;2023-07-22T00:57:20;7.38;;;3.90;;
16272;SDS011;8244;50.044;9.006;2023-07-22T01:02:22;6.60;;;3.75;;
16272;SDS011;8244;50.044;9.006;2023-07-22T01:07:24;6.25;;;4.10;;
16272;SDS011;8244;50.044;9.006;2023-07-22T01:12:27;7.28;;;4.60;;
16272;SDS011;8244;50.044;9.006;2023-07-22T01:17:29;7.18;;;4.43;;
16272;SDS011;8244;50.044;9.006;2023-07-22T01:22:31;5.53;;;4.10;;
16272;SDS011;8244;50.044;9.006;2023-07-22T01:27:34;7.43;;;4.32;;
16272;SDS011;8244;50.044;9.006;2023-07-22T01:32:36;8.10;;;4.13;;
16272;SDS011;8244;50.044;9.006;2023-07-22T01:37:39;7.22;;;4.07;;
16272;SDS011;8244;50.044;9.006;2023-07-22T01:42:42;7.28;;;3.95;;
16272;SDS011;8244;50.044;9.006;2023-07-22T01:47:44;5.93;;;3.50;;
16272;SDS011;8244;50.044;9.006;2023-07-22T01:52:45;4.75;;;3.70;;
16272;SDS011;8244;50.044;9.006;2023-07-22T01:57:48;5.75;;;4.25;;
16272;SDS011;8244;50.044;9.006;2023-07-22T02:02:50;8.02;;;4.57;;
16272;SDS011;8244;50.044;9.006;2023-07-22T02:07:52;16.58;;;3.90;;
16272;SDS011;8244;50.044;9.006;2023-07-22T02:12:56;5.65;;;4.15;;
16272;SDS011;8244;50.044;9.006;2023-07-22T02:17:58;6.78;;;4.30;;
16272;SDS011;8244;50.044;9.006;2023-07-22T02:22:59;8.55;;;5.07;;
16272;SDS011;8244;50.044;9.006;2023-07-22T02:28:02;6.50;;;4.05;;
16272;SDS011;8244;50.044;9.006;2023-07-22T02:33:04;13.00;;;7.00;;
16272;SDS011;8244;50.044;9.006;2023-07-22T02:38:06;8.52;;;6.32;;
16272;SDS011;8244;50.044;9.006;2023-07-22T02:43:09;6.55;;;4.20;;
16272;SDS011;8244;50.044;9.006;2023-07-22T02:48:11;8.77;;;5.65;;
16272;SDS011;8244;50.044;9.006;2023-07-22T02:53:13;9.88;;;6.22;;
16272;SDS011;8244;50.044;9.006;2023-07-22T02:58:16;13.30;;;5.93;;
16272;SDS011;8244;50.044;9.006;2023-07-22T03:03:17;6.53;;;4.47;;
16272;SDS011;8244;50.044;9.006;2023-07-22T03:08:20;13.98;;;7.13;;
16272;SDS011;8244;50.044;9.006;2023-07-22T03:13:22;7.32;;;5.35;;
16272;SDS011;8244;50.044;9.006;2023-07-22T03:18:24;9.98;;;5.50;;
16272;SDS011;8244;50.044;9.006;2023-07-22T03:23:26;8.75;;;5.43;;
16272;SDS011;8244;50.044;9.006;2023-07-22T03:28:29;9.88;;;5.97;;
16272;SDS011;8244;50.044;9.006;2023-07-22T03:33:30;8.82;;;5.68;;
16272;SDS011;8244;50.044;9.006;2023-07-22T03:38:32;6.18;;;4.43;;
16272;SDS011;8244;50.044;9.006;2023-07-22T03:43:35;8.40;;;5.30;;
16272;SDS011;8244;50.044;9.006;2023-07-22T03:48:37;7.90;;;5.55;;
16272;SDS011;8244;50.044;9.006;2023-07-22T03:53:38;6.50;;;5.13;;
16272;SDS011;8244;50.044;9.006;2023-07-22T03:58:41;6.45;;;4.82;;
16272;SDS011;8244;50.044;9.006;2023-07-22T04:03:43;6.85;;;5.32;;
16272;SDS011;8244;50.044;9.006;2023-07-22T04:08:45;8.15;;;5.80;;
16272;SDS011;8244;50.044;9.006;2023-07-22T04:13:48;6.47;;;5.30;;
16272;SDS011;8244;50.044;9.006;2023-07-22T04:18:49;9.88;;;5.63;;
16272;SDS011;8244;50.044;9.006;2023-07-22T04:23:51;8.07;;;5.20;;
16272;SDS011;8244;50.044;9.006;2023-07-22T04:28:54;7.43;;;4.68;;
16272;SDS011;8244;50.044;9.006;2023-07-22T04:33:57;9.95;;;6.15;;
16272;SDS011;8244;50.044;9.006;2023-07-22T04:38:58;10.30;;;6.05;;
16272;SDS011;8244;50.044;9.006;2023-07-22T04:44:01;9.27;;;5.60;;
16272;SDS011;8244;50.044;9.006;2023-07-22T04:49:03;10.07;;;6.07;;
16272;SDS011;8244;50.044;9.006;2023-07-22T04:54:05;10.10;;;6.22;;
16272;SDS011;8244;50.044;9.006;2023-07-22T04:59:08;8.93;;;5.70;;
16272;SDS011;8244;50.044;9.006;2023-07-22T05:04:10;7.20;;;4.85;;
16272;SDS011;8244;50.044;9.006;2023-07-22T05:09:11;9.23;;;4.43;;
16272;SDS011;8244;50.044;9.006;2023-07-22T05:14:15;5.95;;;4.43;;
16272;SDS011;8244;50.044;9.006;2023-07-22T05:19:16;7.80;;;4.40;;
16272;SDS011;8244;50.044;9.006;2023-07-22T05:24:19;6.22;;;4.03;;
16272;SDS011;8244;50.044;9.006;2023-07-22T05:29:22;6.47;;;4.40;;
16272;SDS011;8244;50.044;9.006;2023-07-22T05:34:24;6.90;;;3.88;;
16272;SDS011;8244;50.044;9.006;2023-07-22T05:39:25;6.88;;;4.00;;
16272;SDS011;8244;50.044;9.006;2023-07-22T05:44:28;5.45;;;2.95;;
16272;SDS011;8244;50.044;9.006;2023-07-22T05:49:30;4.45;;;3.10;;
16272;SDS011;8244;50.044;9.006;2023-07-22T05:54:32;4.05;;;2.90;;
16272;SDS011;8244;50.044;9.006;2023-07-22T05:59:35;4.43;;;3.10;;
16272;SDS011;8244;50.044;9.006;2023-07-22T06:04:37;5.80;;;3.00;;
16272;SDS011;8244;50.044;9.006;2023-07-22T06:09:39;4.10;;;2.90;;
16272;SDS011;8244;50.044;9.006;2023-07-22T06:14:43;5.25;;;3.15;;
16272;SDS011;8244;50.044;9.006;2023-07-22T06:19:45;6.15;;;3.42;;
16272;SDS011;8244;50.044;9.006;2023-07-22T06:24:46;3.95;;;3.03;;
16272;SDS011;8244;50.044;9.006;2023-07-22T06:29:49;4.72;;;2.83;;
16272;SDS011;8244;50.044;9.006;2023-07-22T06:34:51;5.60;;;3.00;;
16272;SDS011;8244;50.044;9.006;2023-07-22T06:39:52;4.65;;;3.00;;
16272;SDS011;8244;50.044;9.006;2023-07-22T06:44:56;5.35;;;3.00;;
16272;SDS011;8244;50.044;9.006;2023-07-22T06:49:57;3.70;;;2.70;;
16272;SDS011;8244;50.044;9.006;2023-07-22T06:54:59;3.40;;;2.88;;
16272;SDS011;8244;50.044;9.006;2023-07-22T07:00:02;3.17;;;2.50;;
16272;SDS011;8244;50.044;9.006;2023-07-22T07:05:05;9.15;;;3.03;;
16272;SDS011;8244;50.044;9.006;2023-07-22T07:10:07;4.18;;;2.75;;
16272;SDS011;8244;50.044;9.006;2023-07-22T07:15:11;6.07;;;2.70;;
16272;SDS011;8244;50.044;9.006;2023-07-22T07:20:13;4.55;;;2.60;;
16272;SDS011;8244;50.044;9.006;2023-07-22T07:25:15;4.82;;;2.90;;
16272;SDS011;8244;50.044;9.006;2023-07-22T07:30:18;4.43;;;2.50;;
16272;SDS011;8244;50.044;9.006;2023-07-22T07:35:20;5.57;;;2.70;;
16272;SDS011;8244;50.044;9.006;2023-07-22T07:40:21;3.70;;;2.80;;
16272;SDS011;8244;50.044;9.006;2023-07-22T07:45:24;5.18;;;2.72;;
16272;SDS011;8244;50.044;9.006;2023-07-22T07:50:26;6.28;;;3.15;;
16272;SDS011;8244;50.044;9.006;2023-07-22T07:55:28;4.03;;;2.70;;
16272;SDS011;8244;50.044;9.006;2023-07-22T08:00:31;3.90;;;3.08;;
16272;SDS011;8244;50.044;9.006;2023-07-22T08:05:33;6.30;;;2.97;;
16272;SDS011;8244;50.044;9.006;2023-07-22T08:10:35;5.47;;;2.67;;
16272;SDS011;8244;50.044;9.006;2023-07-22T08:15:38;5.15;;;2.30;;
16272;SDS011;8244;50.044;9.006;2023-07-22T08:20:41;3.60;;;2.35;;
16272;SDS011;8244;50.044;9.006;2023-07-22T08:25:43;3.72;;;2.50;;
16272;SDS011;8244;50.044;9.006;2023-07-22T08:30:47;3.63;;;2.50;;
16272;SDS011;8244;50.044;9.006;2023-07-22T08:35:50;3.53;;;2.20;;
16272;SDS011;8244;50.044;9.006;2023-07-22T08:40:52;3.85;;;2.33;;
16272;SDS011;8244;50.044;9.006;2023-07-22T08:45:55;3.30;;;2.30;;
16272;SDS011;8244;50.044;9.006;2023-07-22T08:51:02;4.85;;;2.38;;
16272;SDS011;8244;50.044;9.006;2023-07-22T08:56:06;3.72;;;2.30;;
16272;SDS011;8244;50.044;9.006;2023-07-22T09:01:09;4.95;;;2.92;;
16272;SDS011;8244;50.044;9.006;2023-07-22T09:06:11;3.80;;;2.42;;
16272;SDS011;8244;50.044;9.006;2023-07-22T09:11:13;3.63;;;2.50;;
16272;SDS011;8244;50.044;9.006;2023-07-22T09:16:16;5.82;;;2.67;;
16272;SDS011;8244;50.044;9.006;2023-07-22T09:21:19;4.05;;;2.40;;
16272;SDS011;8244;50.044;9.006;2023-07-22T09:26:21;6.43;;;2.70;;
16272;SDS011;8244;50.044;9.006;2023-07-22T09:31:24;4.47;;;2.60;;
16272;SDS011;8244;50.044;9.006;2023-07-22T09:36:29;2.95;;;2.38;;
16272;SDS011;8244;50.044;9.006;2023-07-22T09:41:30;5.65;;;2.50;;
16272;SDS011;8244;50.044;9.006;2023-07-22T09:46:34;4.53;;;2.97;;
16272;SDS011;8244;50.044;9.006;2023-07-22T09:51:36;4.53;;;2.78;;
16272;SDS011;8244;50.044;9.006;2023-07-22T09:56:45;5.07;;;3.00;;
16272;SDS011;8244;50.044;9.006;2023-07-22T10:01:49;4.47;;;2.92;;
16272;SDS011;8244;50.044;9.006;2023-07-22T10:06:52;4.05;;;3.00;;
16272;SDS011;8244;50.044;9.006;2023-07-22T10:11:54;5.18;;;2.72;;
16272;SDS011;8244;50.044;9.006;2023-07-22T10:16:58;5.07;;;2.80;;
16272;SDS011;8244;50.044;9.006;2023-07-22T10:22:01;4.75;;;2.70;;
16272;SDS011;8244;50.044;9.006;2023-07-22T10:27:04;3.25;;;2.60;;
16272;SDS011;8244;50.044;9.006;2023-07-22T10:32:09;3.97;;;2.70;;
16272;SDS011;8244;50.044;9.006;2023-07-22T10:37:10;4.57;;;2.92;;
16272;SDS011;8244;50.044;9.006;2023-07-22T10:42:16;4.60;;;2.55;;
16272;SDS011;8244;50.044;9.006;2023-07-22T10:47:33;6.25;;;2.60;;
16272;SDS011;8244;50.044;9.006;2023-07-22T10:52:37;7.30;;;3.00;;
16272;SDS011;8244;50.044;9.006;2023-07-22T10:57:48;5.53;;;3.00;;
16272;SDS011;8244;50.044;9.006;2023-07-22T11:03:11;7.07;;;3.50;;
16272;SDS011;8244;50.044;9.006;2023-07-22T11:08:14;5.25;;;3.17;;
16272;SDS011;8244;50.044;9.006;2023-07-22T11:13:16;4.53;;;2.92;;
16272;SDS011;8244;50.044;9.006;2023-07-22T11:18:19;4.82;;;3.03;;
16272;SDS011;8244;50.044;9.006;2023-07-22T11:23:20;6.57;;;2.92;;
16272;SDS011;8244;50.044;9.006;2023-07-22T11:28:22;6.72;;;3.00;;
16272;SDS011;8244;50.044;9.006;2023-07-22T11:33:25;6.53;;;2.80;;
16272;SDS011;8244;50.044;9.006;2023-07-22T11:38:27;4.43;;;2.90;;
16272;SDS011;8244;50.044;9.006;2023-07-22T11:43:29;7.22;;;3.10;;
16272;SDS011;8244;50.044;9.006;2023-07-22T11:48:32;5.20;;;2.80;;
16272;SDS011;8244;50.044;9.006;2023-07-22T11:53:34;3.20;;;2.60;;
16272;SDS011;8244;50.044;9.006;2023-07-22T11:58:35;6.53;;;2.90;;
16272;SDS011;8244;50.044;9.006;2023-07-22T12:03:39;4.10;;;2.70;;
16272;SDS011;8244;50.044;9.006;2023-07-22T12:08:45;5.13;;;2.83;;
16272;SDS011;8244;50.044;9.006;2023-07-22T12:13:47;4.35;;;2.63;;
16272;SDS011;8244;50.044;9.006;2023-07-22T12:18:53;4.57;;;3.00;;
16272;SDS011;8244;50.044;9.006;2023-07-22T12:23:56;4.28;;;2.97;;
16272;SDS011;8244;50.044;9.006;2023-07-22T12:28:57;5.32;;;2.78;;
16272;SDS011;8244;50.044;9.006;2023-07-22T12:34:00;6.30;;;2.60;;
16272;SDS011;8244;50.044;9.006;2023-07-22T12:39:02;4.65;;;2.50;;
16272;SDS011;8244;50.044;9.006;2023-07-22T12:44:04;4.00;;;2.70;;
16272;SDS011;8244;50.044;9.006;2023-07-22T12:49:07;4.05;;;2.90;;
16272;SDS011;8244;50.044;9.006;2023-07-22T12:54:09;4.75;;;2.95;;
16272;SDS011;8244;50.044;9.006;2023-07-22T12:59:11;4.20;;;2.72;;
16272;SDS011;8244;50.044;9.006;2023-07-22T13:04:14;5.47;;;2.88;;
16272;SDS011;8244;50.044;9.006;2023-07-22T13:09:15;7.63;;;3.10;;
16272;SDS011;8244;50.044;9.006;2023-07-22T13:14:17;6.30;;;2.63;;
16272;SDS011;8244;50.044;9.006;2023-07-22T13:19:20;3.97;;;2.92;;
16272;SDS011;8244;50.044;9.006;2023-07-22T13:24:21;5.43;;;2.85;;
16272;SDS011;8244;50.044;9.006;2023-07-22T13:29:23;5.13;;;2.92;;
16272;SDS011;8244;50.044;9.006;2023-07-22T13:34:26;3.35;;;2.50;;
16272;SDS011;8244;50.044;9.006;2023-07-22T13:39:28;5.22;;;2.92;;
16272;SDS011;8244;50.044;9.006;2023-07-22T13:44:29;5.50;;;2.90;;
16272;SDS011;8244;50.044;9.006;2023-07-22T13:49:32;4.38;;;2.65;;
16272;SDS011;8244;50.044;9.006;2023-07-22T13:54:34;7.70;;;2.75;;
16272;SDS011;8244;50.044;9.006;2023-07-22T13:59:36;4.63;;;2.67;;
16272;SDS011;8244;50.044;9.006;2023-07-22T14:04:39;5.45;;;2.70;;
16272;SDS011;8244;50.044;9.006;2023-07-22T14:09:40;4.53;;;2.70;;
16272;SDS011;8244;50.044;9.006;2023-07-22T14:14:42;4.57;;;2.72;;
16272;SDS011;8244;50.044;9.006;2023-07-22T14:19:45;5.93;;;2.70;;
16272;SDS011;8244;50.044;9.006;2023-07-22T14:24:47;4.53;;;2.72;;
16272;SDS011;8244;50.044;9.006;2023-07-22T14:29:48;4.45;;;2.70;;
16272;SDS011;8244;50.044;9.006;2023-07-22T14:34:52;5.70;;;2.50;;
16272;SDS011;8244;50.044;9.006;2023-07-22T14:39:53;3.63;;;2.60;;
16272;SDS011;8244;50.044;9.006;2023-07-22T14:44:55;4.93;;;2.88;;
16272;SDS011;8244;50.044;9.006;2023-07-22T14:49:58;3.47;;;2.50;;
16272;SDS011;8244;50.044;9.006;2023-07-22T14:55:00;4.38;;;2.90;;
16272;SDS011;8244;50.044;9.006;2023-07-22T15:00:01;6.15;;;3.15;;
16272;SDS011;8244;50.044;9.006;2023-07-22T15:05:05;5.28;;;2.97;;
16272;SDS011;8244;50.044;9.006;2023-07-22T15:10:07;5.30;;;3.20;;
16272;SDS011;8244;50.044;9.006;2023-07-22T15:15:11;4.13;;;2.72;;
16272;SDS011;8244;50.044;9.006;2023-07-22T15:20:14;6.15;;;2.97;;
16272;SDS011;8244;50.044;9.006;2023-07-22T15:25:16;5.78;;;3.08;;
16272;SDS011;8244;50.044;9.006;2023-07-22T15:30:17;6.85;;;3.30;;
16272;SDS011;8244;50.044;9.006;2023-07-22T15:35:21;5.47;;;3.13;;
16272;SDS011;8244;50.044;9.006;2023-07-22T15:40:23;6.03;;;2.85;;
16272;SDS011;8244;50.044;9.006;2023-07-22T15:45:25;5.63;;;3.20;;
16272;SDS011;8244;50.044;9.006;2023-07-22T15:50:28;7.00;;;3.08;;
16272;SDS011;8244;50.044;9.006;2023-07-22T15:55:30;7.78;;;3.38;;
16272;SDS011;8244;50.044;9.006;2023-07-22T16:00:31;6.75;;;3.42;;
16272;SDS011;8244;50.044;9.006;2023-07-22T16:05:35;5.72;;;3.17;;
16272;SDS011;8244;50.044;9.006;2023-07-22T16:10:36;6.53;;;3.67;;
16272;SDS011;8244;50.044;9.006;2023-07-22T16:15:38;6.30;;;3.45;;
16272;SDS011;8244;50.044;9.006;2023-07-22T16:20:41;5.63;;;3.10;;
16272;SDS011;8244;50.044;9.006;2023-07-22T16:25:43;7.55;;;3.58;;
16272;SDS011;8244;50.044;9.006;2023-07-22T16:30:45;3.63;;;2.78;;
16272;SDS011;8244;50.044;9.006;2023-07-22T16:35:47;7.57;;;3.00;;
16272;SDS011;8244;50.044;9.006;2023-07-22T16:40:50;5.75;;;3.20;;
16272;SDS011;8244;50.044;9.006;2023-07-22T16:45:51;6.20;;;3.30;;
16272;SDS011;8244;50.044;9.006;2023-07-22T16:50:54;7.38;;;3.50;;
16272;SDS011;8244;50.044;9.006;2023-07-22T16:55:56;5.75;;;3.42;;
16272;SDS011;8244;50.044;9.006;2023-07-22T17:00:58;4.75;;;3.30;;
16272;SDS011;8244;50.044;9.006;2023-07-22T17:06:01;8.30;;;3.67;;
16272;SDS011;8244;50.044;9.006;2023-07-22T17:11:03;5.43;;;3.30;;
16272;SDS011;8244;50.044;9.006;2023-07-22T17:16:05;7.00;;;3.63;;
16272;SDS011;8244;50.044;9.006;2023-07-22T17:21:08;6.07;;;3.78;;
16272;SDS011;8244;50.044;9.006;2023-07-22T17:26:11;6.88;;;3.90;;
16272;SDS011;8244;50.044;9.006;2023-07-22T17:31:13;10.07;;;4.03;;
16272;SDS011;8244;50.044;9.006;2023-07-22T17:36:16;7.22;;;3.63;;
16272;SDS011;8244;50.044;9.006;2023-07-22T17:41:17;8.38;;;4.60;;
16272;SDS011;8244;50.044;9.006;2023-07-22T17:46:19;5.97;;;3.72;;
16272;SDS011;8244;50.044;9.006;2023-07-22T17:51:22;7.35;;;4.28;;
16272;SDS011;8244;50.044;9.006;2023-07-22T17:56:24;8.68;;;4.30;;
16272;SDS011;8244;50.044;9.006;2023-07-22T18:01:26;7.35;;;4.13;;
16272;SDS011;8244;50.044;9.006;2023-07-22T18:06:29;7.63;;;4.13;;
16272;SDS011;8244;50.044;9.006;2023-07-22T18:11:31;6.72;;;4.25;;
16272;SDS011;8244;50.044;9.006;2023-07-22T18:16:33;13.18;;;4.63;;
16272;SDS011;8244;50.044;9.006;2023-07-22T18:21:36;7.15;;;4.13;;
16272;SDS011;8244;50.044;9.006;2023-07-22T18:26:38;7.18;;;3.80;;
16272;SDS011;8244;50.044;9.006;2023-07-22T18:31:39;5.30;;;3.65;;
16272;SDS011;8244;50.044;9.006;2023-07-22T18:36:42;6.72;;;4.07;;
16272;SDS011;8244;50.044;9.006;2023-07-22T18:41:44;7.82;;;4.32;;
16272;SDS011;8244;50.044;9.006;2023-07-22T18:46:46;7.50;;;4.43;;
16272;SDS011;8244;50.044;9.006;2023-07-22T18:51:49;8.02;;;4.53;;
16272;SDS011;8244;50.044;9.006;2023-07-22T18:56:52;8.48;;;4.20;;
16272;SDS011;8244;50.044;9.006;2023-07-22T19:01:54;6.72;;;4.10;;
16272;SDS011;8244;50.044;9.006;2023-07-22T19:06:57;6.18;;;3.78;;
16272;SDS011;8244;50.044;9.006;2023-07-22T19:11:59;10.18;;;4.38;;
16272;SDS011;8244;50.044;9.006;2023-07-22T19:17:01;6.55;;;4.05;;
16272;SDS011;8244;50.044;9.006;2023-07-22T19:22:04;8.68;;;4.55;;
16272;SDS011;8244;50.044;9.006;2023-07-22T19:27:06;6.80;;;3.45;;
16272;SDS011;8244;50.044;9.006;2023-07-22T19:32:08;6.20;;;3.80;;
16272;SDS011;8244;50.044;9.006;2023-07-22T19:37:11;6.70;;;4.07;;
16272;SDS011;8244;50.044;9.006;2023-07-22T19:42:13;7.82;;;3.83;;
16272;SDS011;8244;50.044;9.006;2023-07-22T19:47:15;7.00;;;4.03;;
16272;SDS011;8244;50.044;9.006;2023-07-22T19:52:18;7.00;;;3.85;;
16272;SDS011;8244;50.044;9.006;2023-07-22T19:57:20;6.50;;;4.00;;
16272;SDS011;8244;50.044;9.006;2023-07-22T20:02:22;6.32;;;3.70;;
16272;SDS011;8244;50.044;9.006;2023-07-22T20:07:25;7.72;;;4.18;;
16272;SDS011;8244;50.044;9.006;2023-07-22T20:12:26;6.97;;;4.18;;
16272;SDS011;8244;50.044;9.006;2023-07-22T20:17:28;6.95;;;3.85;;
16272;SDS011;8244;50.044;9.006;2023-07-22T20:22:31;7.28;;;4.10;;
16272;SDS011;8244;50.044;9.006;2023-07-22T20:27:32;5.53;;;3.83;;
16272;SDS011;8244;50.044;9.006;2023-07-22T20:32:35;6.95;;;4.22;;
16272;SDS011;8244;50.044;9.006;2023-07-22T20:37:38;6.93;;;4.43;;
16272;SDS011;8244;50.044;9.006;2023-07-22T20:42:40;12.07;;;6.40;;
16272;SDS011;8244;50.044;9.006;2023-07-22T20:47:43;8.20;;;4.28;;
16272;SDS011;8244;50.044;9.006;2023-07-22T20:52:45;6.93;;;4.57;;
16272;SDS011;8244;50.044;9.006;2023-07-22T20:57:47;6.97;;;4.20;;
16272;SDS011;8244;50.044;9.006;2023-07-22T21:02:49;7.22;;;4.30;;
16272;SDS011;8244;50.044;9.006;2023-07-22T21:07:52;7.97;;;4.10;;
16272;SDS011;8244;50.044;9.006;2023-07-22T21:12:53;8.50;;;4.35;;
16272;SDS011;8244;50.044;9.006;2023-07-22T21:17:55;8.60;;;4.35;;
16272;SDS011;8244;50.044;9.006;2023-07-22T21:22:58;8.63;;;4.38;;
16272;SDS011;8244;50.044;9.006;2023-07-22T21:28:00;8.88;;;4.28;;
16272;SDS011;8244;50.044;9.006;2023-07-22T21:33:01;10.15;;;4.65;;
16272;SDS011;8244;50.044;9.006;2023-07-22T21:38:05;8.02;;;4.78;;
16272;SDS011;8244;50.044;9.006;2023-07-22T21:43:07;8.93;;;4.32;;
16272;SDS011;8244;50.044;9.006;2023-07-22T21:48:09;7.85;;;3.92;;
16272;SDS011;8244;50.044;9.006;2023-07-22T21:53:12;7.30;;;4.60;;
16272;SDS011;8244;50.044;9.006;2023-07-22T21:58:14;6.80;;;4.07;;
16272;SDS011;8244;50.044;9.006;2023-07-22T22:03:16;11.15;;;4.80;;
16272;SDS011;8244;50.044;9.006;2023-07-22T22:08:19;8.20;;;4.22;;
16272;SDS011;8244;50.044;9.006;2023-07-22T22:13:20;9.15;;;4.03;;
16272;SDS011;8244;50.044;9.006;2023-07-22T22:18:22;6.03;;;4.00;;
16272;SDS011;8244;50.044;9.006;2023-07-22T22:23:25;8.65;;;4.13;;
16272;SDS011;8244;50.044;9.006;2023-07-22T22:28:26;7.78;;;4.28;;
16272;SDS011;8244;50.044;9.006;2023-07-22T22:33:28;8.70;;;4.20;;
16272;SDS011;8244;50.044;9.006;2023-07-22T22:38:31;8.02;;;3.95;;
16272;SDS011;8244;50.044;9.006;2023-07-22T22:43:33;9.45;;;4.05;;
16272;SDS011;8244;50.044;9.006;2023-07-22T22:48:34;8.77;;;4.60;;
16272;SDS011;8244;50.044;9.006;2023-07-22T22:53:37;9.93;;;4.57;;
16272;SDS011;8244;50.044;9.006;2023-07-22T22:58:39;9.88;;;5.00;;
16272;SDS011;8244;50.044;9.006;2023-07-22T23:03:41;9.80;;;4.68;;
16272;SDS011;8244;50.044;9.006;2023-07-22T23:08:44;9.63;;;4.75;;
16272;SDS011;8244;50.044;9.006;2023-07-22T23:13:47;8.52;;;5.00;;
16272;SDS011;8244;50.044;9.006;2023-07-22T23:18:50;10.73;;;5.67;;
16272;SDS011;8244;50.044;9.006;2023-07-22T23:23:53;10.02;;;4.97;;
16272;SDS011;8244;50.044;9.006;2023-07-22T23:28:54;11.85;;;5.00;;
16272;SDS011;8244;50.044;9.006;2023-07-22T23:33:56;10.35;;;5.15;;
16272;SDS011;8244;50.044;9.006;2023-07-22T23:38:59;9.82;;;5.03;;
16272;SDS011;8244;50.044;9.006;2023-07-22T23:44:01;10.30;;;5.32;;
16272;SDS011;8244;50.044;9.006;2023-07-22T23:49:04;9.05;;;5.57;;
16272;SDS011;8244;50.044;9.006;2023-07-22T23:54:07;7.65;;;5.28;;
16272;SDS011;8244;50.044;9.006;2023-07-22T23:59:08;7.78;;;4.95;;
